Time;durP1;ratioP1;P1;durP2;ratioP2;P2;SDS_P1;SDS_P2;PMS_P1;PMS_P2;Temp;Humidity;BMP_temperature;BMP_pressure;BME280_temperature;BME280_humidity;BME280_pressure;Samples;Min_cycle;Max_cycle;Signal;HPM_P1;HPM_P2
2022/08/29 00:00:22;;;;;;;4.28;1.80;;;;;;;26.24;38.05;102317.94;5071795;28;20028;-72
2022/08/29 00:02:51;;;;;;;3.80;1.33;;;;;;;26.07;39.31;102321.50;5055476;28;20029;-73
2022/08/29 00:05:18;;;;;;;4.90;3.13;;;;;;;25.89;39.40;102324.16;5073625;28;20498;-72
2022/08/29 00:07:44;;;;;;;5.22;1.70;;;;;;;25.93;39.02;102318.66;5058486;28;20496;-72
2022/08/29 00:10:09;;;;;;;4.93;1.90;;;;;;;26.09;39.03;102316.97;5067672;28;20075;-72
2022/08/29 00:12:36;;;;;;;3.10;1.77;;;;;;;25.48;39.08;102324.44;5052726;28;20075;-72
2022/08/29 00:15:03;;;;;;;2.45;1.73;;;;;;;26.02;39.09;102318.19;5068368;28;20477;-72
2022/08/29 00:17:28;;;;;;;2.42;1.80;;;;;;;26.22;38.25;102320.69;5053336;28;20032;-72
2022/08/29 00:19:53;;;;;;;8.02;2.00;;;;;;;26.32;38.42;102320.22;5034808;28;20029;-72
2022/08/29 00:22:19;;;;;;;5.22;2.17;;;;;;;26.61;37.86;102325.81;5043241;28;20047;-72
2022/08/29 00:24:44;;;;;;;5.05;2.35;;;;;;;26.70;37.33;102325.34;5045880;28;20064;-72
2022/08/29 00:27:09;;;;;;;5.47;2.03;;;;;;;26.46;37.88;102327.50;5068913;28;20040;-72
2022/08/29 00:29:35;;;;;;;7.75;2.47;;;;;;;26.49;37.77;102322.88;5054029;28;20104;-72
2022/08/29 00:32:00;;;;;;;5.15;1.98;;;;;;;26.67;37.69;102322.81;5055187;28;20101;-72
2022/08/29 00:34:25;;;;;;;4.60;1.98;;;;;;;26.72;37.48;102328.81;5070658;28;20104;-72
2022/08/29 00:36:51;;;;;;;5.05;2.10;;;;;;;26.47;37.68;102327.44;5061848;28;20119;-72
2022/08/29 00:39:16;;;;;;;5.60;2.72;;;;;;;26.23;38.23;102338.50;5055194;28;20036;-72
2022/08/29 00:41:42;;;;;;;3.30;1.95;;;;;;;26.22;38.29;102326.06;5052199;28;20037;-72
2022/08/29 00:44:07;;;;;;;5.10;2.00;;;;;;;26.13;38.11;102337.28;5052437;28;20052;-73
2022/08/29 00:46:42;;;;;;;4.60;2.00;;;;;;;26.32;38.03;102334.47;5057260;28;20021;-73
2022/08/29 00:49:13;;;;;;;4.95;2.10;;;;;;;26.20;38.08;102338.69;5041786;28;20455;-72
2022/08/29 00:51:39;;;;;;;3.13;1.83;;;;;;;26.19;38.03;102342.31;5072592;28;20056;-72
2022/08/29 00:54:10;;;;;;;5.30;2.47;;;;;;;26.04;38.53;102333.25;5070944;28;20028;-72
2022/08/29 00:56:38;;;;;;;7.00;2.03;;;;;;;26.02;38.53;102318.19;5071866;28;20028;-72
2022/08/29 00:59:10;;;;;;;2.50;1.80;;;;;;;25.63;38.30;102336.22;5068176;28;20122;-72
2022/08/29 01:01:36;;;;;;;;;;;;;;;25.81;38.97;102326.38;5052058;28;20068;-73
2022/08/29 01:04:01;;;;;;;2.15;1.77;;;;;;;25.83;38.60;102324.50;5051579;28;19956;-72
2022/08/29 01:06:29;;;;;;;3.03;1.92;;;;;;;25.79;38.66;102322.91;5034410;28;20033;-72
2022/08/29 01:08:55;;;;;;;3.50;1.85;;;;;;;26.05;38.20;102323.44;5059714;28;20071;-73
2022/08/29 01:14:06;;;;;;;4.57;1.70;;;;;;;26.07;38.02;102326.88;5051637;28;20491;-72
2022/08/29 01:16:32;;;;;;;2.92;2.03;;;;;;;26.04;37.91;102329.72;5051311;28;20048;-72
2022/08/29 01:19:02;;;;;;;5.78;2.13;;;;;;;26.11;37.66;102333.81;5051544;28;20071;-72
2022/08/29 01:21:42;;;;;;;5.13;2.00;;;;;;;26.09;38.20;102338.38;5052390;28;20424;-72
2022/08/29 01:24:14;;;;;;;6.40;2.75;;;;;;;25.78;38.94;102331.88;5047988;28;20444;-73
2022/08/29 01:26:40;;;;;;;4.80;1.80;;;;;;;25.97;38.35;102331.81;5051977;28;20060;-72
2022/08/29 01:29:06;;;;;;;3.50;1.95;;;;;;;25.79;38.50;102340.78;5033681;28;20074;-72
2022/08/29 01:31:44;;;;;;;6.50;2.00;;;;;;;25.93;38.06;102340.97;5039851;28;20060;-72
2022/08/29 01:34:11;;;;;;;4.28;2.00;;;;;;;25.77;38.76;102340.84;5070718;28;20032;-72
2022/08/29 01:36:43;;;;;;;7.15;2.08;;;;;;;26.00;37.92;102336.16;5053084;28;20025;-72
2022/08/29 01:39:09;;;;;;;3.65;1.77;;;;;;;25.97;37.85;102325.59;5051023;28;20083;-72
2022/08/29 01:41:35;;;;;;;2.97;2.30;;;;;;;26.04;37.49;102327.03;5051854;28;20420;-72
2022/08/29 01:44:07;;;;;;;3.80;1.90;;;;;;;26.04;37.78;102332.41;5051265;28;20041;-73
2022/08/29 01:46:34;;;;;;;5.63;2.05;;;;;;;25.65;38.44;102328.97;5058400;28;20025;-73
2022/08/29 01:49:01;;;;;;;4.28;2.00;;;;;;;25.73;38.48;102328.56;5051128;28;20154;-72
2022/08/29 01:51:26;;;;;;;3.38;1.63;;;;;;;25.93;38.22;102330.25;5051096;28;20135;-73
2022/08/29 01:53:52;;;;;;;4.15;1.77;;;;;;;25.79;38.33;102328.28;5054086;28;20448;-72
2022/08/29 01:56:24;;;;;;;2.60;1.55;;;;;;;26.04;38.08;102324.38;5051357;28;20135;-72
2022/08/29 01:58:52;;;;;;;3.45;2.40;;;;;;;25.88;38.47;102332.28;5070926;28;20025;-72
2022/08/29 02:01:21;;;;;;;3.88;1.98;;;;;;;26.04;37.52;102333.25;5058701;28;20017;-72
2022/08/29 02:03:47;;;;;;;4.78;2.03;;;;;;;25.68;38.79;102341.34;5062613;28;20052;-72
2022/08/29 02:06:12;;;;;;;4.25;2.10;;;;;;;25.70;39.05;102336.75;5068796;28;20439;-72
2022/08/29 02:08:39;;;;;;;4.20;1.83;;;;;;;25.97;37.49;102320.25;5069546;28;20025;-72
2022/08/29 02:11:08;;;;;;;6.32;2.15;;;;;;;25.84;38.35;102338.75;5071474;28;20023;-72
2022/08/29 02:13:36;;;;;;;5.22;2.03;;;;;;;25.75;38.55;102332.06;5065850;28;20538;-72
2022/08/29 02:16:02;;;;;;;4.20;2.38;;;;;;;25.67;38.72;102328.91;5060660;28;20029;-72
2022/08/29 02:18:28;;;;;;;5.53;2.58;;;;;;;25.61;38.56;102334.53;5051221;28;20060;-72
2022/08/29 02:20:53;;;;;;;7.90;2.20;;;;;;;25.64;38.15;102318.34;5050718;28;20108;-72
2022/08/29 02:23:18;;;;;;;3.60;2.38;;;;;;;25.53;38.33;102326.91;5062513;28;20418;-72
2022/08/29 02:25:46;;;;;;;5.10;2.10;;;;;;;25.44;38.91;102328.22;5053299;28;20029;-72
2022/08/29 02:28:14;;;;;;;5.22;2.70;;;;;;;25.55;38.69;102325.91;5061529;28;20507;-73
2022/08/29 02:30:42;;;;;;;6.15;2.45;;;;;;;25.60;38.36;102333.69;5071444;28;20025;-72
2022/08/29 02:33:08;;;;;;;4.93;2.67;;;;;;;25.43;38.88;102336.34;5052230;28;20527;-72
2022/08/29 02:35:34;;;;;;;5.38;2.63;;;;;;;25.35;38.58;102334.06;5035347;28;20560;-72
2022/08/29 02:38:00;;;;;;;5.10;2.45;;;;;;;25.73;37.76;102333.94;5050541;28;20106;-72
2022/08/29 02:40:27;;;;;;;4.38;2.75;;;;;;;25.55;38.68;102341.97;5050245;28;20147;-72
2022/08/29 02:42:53;;;;;;;5.07;2.45;;;;;;;25.60;38.13;102331.00;5068749;28;20082;-73
2022/08/29 02:45:20;;;;;;;3.78;2.25;;;;;;;25.37;38.11;102338.34;5052493;28;20049;-72
2022/08/29 02:47:46;;;;;;;6.32;3.35;;;;;;;24.94;39.47;102334.22;5069109;28;20369;-72
2022/08/29 02:50:13;;;;;;;3.05;2.42;;;;;;;25.35;38.76;102334.91;5053080;28;20399;-73
2022/08/29 02:52:40;;;;;;;6.18;2.80;;;;;;;25.53;38.45;102327.78;5080828;28;20111;-72
2022/08/29 02:55:07;;;;;;;4.10;2.50;;;;;;;25.26;39.14;102329.97;5078603;28;20480;-72
2022/08/29 02:57:33;;;;;;;4.82;2.80;;;;;;;24.78;39.87;102329.56;5052227;28;20028;-72
2022/08/29 02:59:58;;;;;;;7.03;2.60;;;;;;;24.92;39.69;102349.44;5055588;28;20039;-72
2022/08/29 03:02:24;;;;;;;3.42;2.55;;;;;;;25.21;38.70;102348.03;5076541;28;20036;-72
2022/08/29 03:04:49;;;;;;;5.70;3.00;;;;;;;25.43;38.49;102342.56;5092339;28;20024;-72
2022/08/29 03:07:15;;;;;;;5.28;2.67;;;;;;;25.18;39.12;102338.38;5092997;28;20024;-72
2022/08/29 03:09:40;;;;;;;7.78;2.92;;;;;;;25.15;39.25;102338.50;5071512;28;20024;-73
2022/08/29 03:12:06;;;;;;;5.63;2.80;;;;;;;25.21;39.12;102332.00;5083557;28;20036;-72
2022/08/29 03:14:31;;;;;;;5.32;2.75;;;;;;;25.36;38.71;102330.41;5094684;28;20020;-72
2022/08/29 03:16:56;;;;;;;5.50;2.97;;;;;;;24.37;40.35;102329.59;5074990;28;20028;-73
2022/08/29 03:19:22;;;;;;;6.03;2.80;;;;;;;25.20;39.01;102325.78;5093387;28;20035;-72
2022/08/29 03:21:47;;;;;;;6.03;2.78;;;;;;;24.88;39.93;102312.16;5070410;28;20564;-72
2022/08/29 03:24:13;;;;;;;6.95;2.75;;;;;;;24.94;39.64;102318.16;5090050;28;20031;-72
2022/08/29 03:26:38;;;;;;;5.43;2.65;;;;;;;25.22;38.73;102329.28;5058703;28;20059;-72
2022/08/29 03:29:04;;;;;;;6.70;2.90;;;;;;;25.04;39.27;102327.47;5076298;28;20030;-72
2022/08/29 03:31:29;;;;;;;3.55;2.60;;;;;;;24.77;39.86;102321.59;5076006;28;20384;-72
2022/08/29 03:33:55;;;;;;;7.30;2.92;;;;;;;24.94;39.64;102318.16;5094255;28;20035;-73
2022/08/29 03:36:25;;;;;;;7.03;3.20;;;;;;;24.72;40.47;102313.81;5056877;28;20056;-72
2022/08/29 03:38:51;;;;;;;5.70;3.10;;;;;;;25.07;39.60;102303.22;5056235;28;20079;-72
2022/08/29 03:41:27;;;;;;;6.10;3.00;;;;;;;25.35;38.44;102307.28;5073896;28;20055;-72
2022/08/29 03:43:58;;;;;;;10.52;3.00;;;;;;;24.10;41.01;102313.88;5052646;28;20380;-72
2022/08/29 03:46:25;;;;;;;5.53;2.80;;;;;;;23.38;42.86;102307.09;5066998;28;20039;-72
2022/08/29 03:48:50;;;;;;;5.05;3.30;;;;;;;23.81;42.05;102304.41;5055853;28;20064;-72
2022/08/29 03:51:16;;;;;;;4.80;2.90;;;;;;;24.50;40.66;102297.88;5057707;28;20072;-72
2022/08/29 03:53:42;;;;;;;6.78;3.20;;;;;;;24.18;40.71;102302.84;5053851;28;20025;-72
2022/08/29 03:56:08;;;;;;;10.05;3.67;;;;;;;23.59;42.70;102293.78;5036436;28;20075;-72
2022/08/29 03:58:34;;;;;;;4.68;3.00;;;;;;;24.30;40.86;102288.94;5053081;28;20443;-72
2022/08/29 04:01:00;;;;;;;6.20;3.22;;;;;;;24.58;40.70;102292.16;5053500;28;20029;-72
2022/08/29 04:03:26;;;;;;;5.75;2.85;;;;;;;24.79;40.64;102293.00;5053594;28;20569;-72
2022/08/29 04:05:54;;;;;;;6.72;3.25;;;;;;;25.23;39.49;102304.22;5043494;28;20115;-72
2022/08/29 04:08:20;;;;;;;4.15;2.95;;;;;;;24.98;39.84;102298.34;5061923;28;20024;-73
2022/08/29 04:10:45;;;;;;;4.07;3.13;;;;;;;24.92;39.64;102293.28;5044086;28;20039;-73
2022/08/29 04:13:11;;;;;;;5.75;2.85;;;;;;;24.74;40.09;102295.88;5071262;28;20040;-72
2022/08/29 04:15:38;;;;;;;7.18;3.47;;;;;;;25.06;39.46;102296.19;5055340;28;20496;-72
2022/08/29 04:18:05;;;;;;;6.25;3.22;;;;;;;24.43;40.54;102297.28;5064867;28;20592;-73
2022/08/29 04:20:36;;;;;;;4.55;2.95;;;;;;;24.37;40.91;102298.44;5052390;28;20031;-73
2022/08/29 04:23:02;;;;;;;5.97;2.90;;;;;;;24.30;41.02;102301.44;5053259;28;20090;-72
2022/08/29 04:25:34;;;;;;;5.40;2.85;;;;;;;24.50;41.00;102293.38;5056347;28;20032;-72
2022/08/29 04:28:00;;;;;;;5.75;2.78;;;;;;;24.80;40.19;102306.31;5072752;28;20048;-72
2022/08/29 04:30:26;;;;;;;5.05;2.70;;;;;;;25.06;40.08;102307.72;5071813;28;20143;-72
2022/08/29 04:32:52;;;;;;;5.38;2.90;;;;;;;25.06;39.65;102306.88;5071317;28;20038;-72
2022/08/29 04:35:17;;;;;;;4.45;2.80;;;;;;;24.86;39.96;102303.31;5070064;28;20024;-71
2022/08/29 04:37:43;;;;;;;5.68;2.85;;;;;;;24.91;39.87;102308.47;5035167;28;20070;-72
2022/08/29 04:40:12;;;;;;;6.78;2.90;;;;;;;24.97;39.85;102308.16;5051354;28;20435;-72
2022/08/29 04:42:38;;;;;;;5.07;2.83;;;;;;;24.64;40.57;102305.28;5069236;28;20028;-73
2022/08/29 04:45:05;;;;;;;7.78;3.22;;;;;;;24.97;39.52;102318.00;5061238;28;20446;-72
2022/08/29 04:47:34;;;;;;;7.65;2.45;;;;;;;24.79;39.83;102317.94;5088788;28;20020;-72
2022/08/29 04:49:59;;;;;;;4.95;2.60;;;;;;;24.74;40.23;102317.25;5092815;28;20024;-72
2022/08/29 04:52:25;;;;;;;5.20;2.50;;;;;;;24.51;40.90;102313.84;5073061;28;20027;-72
2022/08/29 04:54:51;;;;;;;2.72;2.13;;;;;;;24.41;41.28;102317.00;5070429;28;20026;-72
2022/08/29 04:57:16;;;;;;;7.45;2.85;;;;;;;24.39;41.11;102333.94;5060732;28;20458;-72
2022/08/29 04:59:41;;;;;;;5.57;2.95;;;;;;;24.08;41.91;102329.09;5071242;28;20035;-72
2022/08/29 05:02:07;;;;;;;7.38;3.35;;;;;;;24.51;41.01;102320.97;5082408;28;20035;-73
2022/08/29 05:04:32;;;;;;;4.43;2.60;;;;;;;24.89;40.51;102332.63;5089494;28;20028;-73
2022/08/29 05:06:59;;;;;;;8.45;2.80;;;;;;;24.77;40.53;102326.94;5072459;28;20587;-72
2022/08/29 05:09:24;;;;;;;4.30;2.70;;;;;;;24.44;41.47;102330.19;5071611;28;20039;-72
2022/08/29 05:11:49;;;;;;;5.60;3.28;;;;;;;24.64;41.27;102326.66;5085779;28;20028;-72
2022/08/29 05:14:15;;;;;;;4.72;2.88;;;;;;;24.81;40.62;102333.88;5088567;28;20103;-72
2022/08/29 05:16:40;;;;;;;7.50;2.90;;;;;;;25.53;39.38;102333.13;5056785;28;20024;-72
2022/08/29 05:19:07;;;;;;;3.97;2.40;;;;;;;25.29;39.95;102345.00;5088490;28;20028;-72
2022/08/29 05:21:35;;;;;;;21.83;4.95;;;;;;;25.07;40.26;102343.34;5089558;28;20039;-73
2022/08/29 05:24:05;;;;;;;3.38;2.30;;;;;;;24.92;41.25;102344.09;5070439;28;20016;-72
2022/08/29 05:26:34;;;;;;;5.10;3.03;;;;;;;25.01;40.67;102351.69;5079313;28;20033;-72
2022/08/29 05:29:00;;;;;;;6.10;3.40;;;;;;;25.15;40.91;102349.22;5071369;28;20514;-72
2022/08/29 05:31:26;;;;;;;7.03;3.20;;;;;;;24.80;41.10;102343.72;5053556;28;20176;-72
2022/08/29 05:33:51;;;;;;;7.30;3.05;;;;;;;24.75;41.47;102343.06;5071969;28;20456;-72
2022/08/29 05:36:16;;;;;;;8.70;3.40;;;;;;;25.18;40.74;102345.53;5089655;28;20054;-72
2022/08/29 05:38:42;;;;;;;11.57;3.75;;;;;;;25.30;40.04;102349.44;5092073;28;20081;-72
2022/08/29 05:41:07;;;;;;;6.25;2.90;;;;;;;25.28;39.80;102343.25;5054703;28;20024;-72
2022/08/29 05:43:34;;;;;;;9.85;3.30;;;;;;;25.48;39.92;102350.34;5069653;28;20460;-72
2022/08/29 05:46:05;;;;;;;8.00;2.95;;;;;;;25.77;39.08;102356.94;5055455;28;20039;-72
2022/08/29 05:48:31;;;;;;;12.07;3.75;;;;;;;25.47;40.03;102354.84;5090865;28;20020;-72
2022/08/29 05:50:57;;;;;;;14.75;4.00;;;;;;;25.40;40.34;102359.63;5088712;28;20521;-72
2022/08/29 05:53:22;;;;;;;14.60;4.20;;;;;;;25.69;39.76;102353.75;5073662;28;20135;-72
2022/08/29 05:55:47;;;;;;;7.35;3.20;;;;;;;25.76;39.36;102359.69;5073741;28;20123;-72
2022/08/29 05:58:13;;;;;;;12.02;3.30;;;;;;;25.91;39.14;102359.78;5072498;28;20418;-72
2022/08/29 06:00:45;;;;;;;11.25;3.42;;;;;;;25.93;39.10;102359.69;5077677;28;20045;-72
2022/08/29 06:03:11;;;;;;;5.57;3.22;;;;;;;25.98;39.29;102359.44;5071875;28;20024;-72
2022/08/29 06:05:37;;;;;;;18.95;4.28;;;;;;;25.97;39.45;102360.41;5073018;28;20078;-72
2022/08/29 06:08:03;;;;;;;13.65;3.42;;;;;;;26.11;38.81;102349.03;5055269;28;20024;-72
2022/08/29 06:10:29;;;;;;;6.32;3.33;;;;;;;26.06;38.83;102357.28;5079207;28;20357;-72
2022/08/29 06:12:54;;;;;;;9.60;3.50;;;;;;;26.19;38.72;102350.34;5072771;28;20022;-72
2022/08/29 06:15:21;;;;;;;16.75;4.68;;;;;;;26.36;38.73;102345.91;5087301;28;20043;-72
2022/08/29 06:17:47;;;;;;;8.27;3.65;;;;;;;26.65;38.13;102360.41;5056578;28;20122;-72
2022/08/29 06:20:12;;;;;;;10.00;3.42;;;;;;;26.66;37.83;102350.56;5086916;28;20143;-72
2022/08/29 06:22:38;;;;;;;6.43;3.03;;;;;;;27.07;36.64;102350.13;5084048;28;20039;-72
2022/08/29 06:25:05;;;;;;;7.82;3.13;;;;;;;27.17;36.58;102354.00;5063414;28;20024;-72
2022/08/29 06:27:30;;;;;;;8.60;3.15;;;;;;;27.03;37.58;102348.56;5090848;28;20093;-73
2022/08/29 06:29:56;;;;;;;10.45;2.90;;;;;;;27.13;36.76;102352.44;5073507;28;20479;-72
2022/08/29 06:32:22;;;;;;;6.47;3.30;;;;;;;26.82;37.34;102346.13;5088152;28;20054;-72
2022/08/29 06:34:47;;;;;;;5.10;3.03;;;;;;;27.05;37.37;102346.66;5073255;28;20147;-73
2022/08/29 06:37:13;;;;;;;8.18;2.90;;;;;;;27.20;36.69;102356.53;5036142;28;20434;-72
2022/08/29 06:39:38;;;;;;;8.13;3.55;;;;;;;26.66;37.35;102356.78;5067709;28;20032;-72
2022/08/29 06:42:04;;;;;;;24.38;3.50;;;;;;;27.40;36.11;102358.09;5095246;28;20032;-73
2022/08/29 06:44:30;;;;;;;7.45;3.15;;;;;;;27.69;36.05;102362.72;5079753;28;20485;-72
2022/08/29 06:46:56;;;;;;;11.23;2.85;;;;;;;27.84;34.38;102363.66;5055474;28;20044;-73
2022/08/29 06:49:23;;;;;;;5.60;2.88;;;;;;;27.95;34.38;102360.31;5067082;28;20028;-72
2022/08/29 06:51:50;;;;;;;10.85;2.40;;;;;;;28.10;34.84;102362.13;5053322;28;20037;-72
2022/08/29 06:54:18;;;;;;;5.57;2.45;;;;;;;28.37;34.65;102358.69;5063547;28;20032;-73
2022/08/29 06:56:44;;;;;;;11.25;3.42;;;;;;;27.51;35.49;102362.84;5049727;28;20043;-72
2022/08/29 06:59:11;;;;;;;4.68;2.38;;;;;;;26.97;35.91;102365.00;5073404;28;20488;-73
2022/08/29 07:01:38;;;;;;;7.38;2.53;;;;;;;27.32;35.65;102367.53;5056167;28;20078;-72
2022/08/29 07:04:04;;;;;;;6.00;3.33;;;;;;;28.56;34.22;102364.66;5063523;28;20056;-73
2022/08/29 07:06:30;;;;;;;4.72;1.92;;;;;;;28.26;34.29;102365.59;5041280;28;20477;-73
2022/08/29 07:08:57;;;;;;;7.97;2.67;;;;;;;26.95;36.64;102366.91;5055985;28;20024;-72
2022/08/29 07:11:28;;;;;;;7.00;2.97;;;;;;;27.34;36.70;102374.53;5045464;28;20021;-73
2022/08/29 07:14:00;;;;;;;6.70;3.43;;;;;;;26.78;38.38;102382.13;5064180;28;20040;-73
2022/08/29 07:16:27;;;;;;;5.82;3.30;;;;;;;26.76;38.58;102378.63;5071741;28;20279;-72
2022/08/29 07:18:52;;;;;;;7.25;2.85;;;;;;;26.06;39.35;102384.06;5073701;28;20020;-72
2022/08/29 07:21:20;;;;;;;12.23;3.60;;;;;;;27.35;37.45;102370.03;5068027;28;20551;-72
2022/08/29 07:23:45;;;;;;;7.68;3.20;;;;;;;27.24;36.84;102374.19;5060899;28;20052;-72
2022/08/29 07:26:20;;;;;;;5.55;2.70;;;;;;;28.48;34.54;102358.91;5036072;28;20112;-72
2022/08/29 07:28:47;;;;;;;9.35;2.58;;;;;;;27.06;33.48;102369.84;5039711;28;20543;-72
2022/08/29 07:31:13;;;;;;;10.30;2.85;;;;;;;28.20;33.63;102362.41;5046361;28;20120;-72
2022/08/29 07:33:39;;;;;;;9.43;3.33;;;;;;;28.79;32.75;102367.75;5035590;28;20115;-72
2022/08/29 07:36:04;;;;;;;10.50;4.05;;;;;;;29.64;32.23;102366.78;5053420;28;20037;-72
2022/08/29 07:38:31;;;;;;;15.80;3.88;;;;;;;29.81;31.82;102363.78;5036179;28;20514;-73
2022/08/29 07:41:03;;;;;;;22.70;5.18;;;;;;;30.11;31.43;102349.22;5035255;28;20036;-73
2022/08/29 07:43:29;;;;;;;13.65;4.95;;;;;;;30.91;30.91;102354.34;5046386;28;20473;-73
2022/08/29 07:45:55;;;;;;;19.10;3.92;;;;;;;31.21;30.21;102350.38;5052885;28;20060;-72
2022/08/29 07:48:22;;;;;;;10.80;3.92;;;;;;;31.86;29.11;102355.47;5062626;28;20093;-73
2022/08/29 07:50:48;;;;;;;18.95;3.88;;;;;;;31.94;29.20;102359.31;5054261;28;20420;-73
2022/08/29 07:53:14;;;;;;;15.18;4.50;;;;;;;31.27;29.77;102365.25;5046611;28;20037;-73
2022/08/29 07:55:40;;;;;;;10.27;3.70;;;;;;;31.75;28.95;102354.47;5035791;28;20466;-72
2022/08/29 07:58:05;;;;;;;12.50;3.97;;;;;;;31.37;29.47;102354.66;5052909;28;20025;-72
2022/08/29 08:00:31;;;;;;;10.02;3.83;;;;;;;31.71;28.87;102352.09;5058765;28;20388;-73
2022/08/29 08:02:56;;;;;;;9.18;3.70;;;;;;;30.75;29.26;102351.03;5047578;28;20123;-72
2022/08/29 08:05:22;;;;;;;13.68;3.25;;;;;;;30.91;29.08;102348.06;5071792;28;20507;-72
2022/08/29 08:07:48;;;;;;;6.93;3.22;;;;;;;30.86;29.19;102343.03;5073554;28;20111;-72
2022/08/29 08:10:18;;;;;;;19.33;3.28;;;;;;;30.77;30.13;102352.63;5050236;28;20028;-72
2022/08/29 08:12:45;;;;;;;11.98;3.50;;;;;;;30.86;29.27;102355.63;5045802;28;20025;-72
2022/08/29 08:15:11;;;;;;;16.40;3.75;;;;;;;31.25;28.85;102357.25;5053437;28;20063;-72
2022/08/29 08:17:36;;;;;;;11.00;4.22;;;;;;;30.65;29.48;102358.06;5053266;28;20064;-72
2022/08/29 08:20:06;;;;;;;9.77;3.10;;;;;;;30.52;29.71;102358.94;5052658;28;20025;-72
2022/08/29 08:22:32;;;;;;;13.52;4.65;;;;;;;29.86;28.89;102375.16;5053847;28;20032;-72
2022/08/29 08:24:57;;;;;;;7.93;2.90;;;;;;;30.90;28.04;102363.41;5052134;28;20393;-72
2022/08/29 08:27:22;;;;;;;7.28;3.08;;;;;;;31.34;28.83;102376.47;5057979;28;20111;-72
2022/08/29 08:29:48;;;;;;;7.28;2.95;;;;;;;30.84;27.51;102374.63;5073254;28;20103;-72
2022/08/29 08:32:13;;;;;;;6.50;2.58;;;;;;;31.68;27.76;102373.94;5071439;28;20063;-72
2022/08/29 08:34:39;;;;;;;7.35;2.45;;;;;;;31.65;27.29;102369.66;5072846;28;20017;-72
2022/08/29 08:37:06;;;;;;;6.38;3.00;;;;;;;32.09;27.13;102372.59;5073116;28;20461;-72
2022/08/29 08:39:32;;;;;;;11.10;2.63;;;;;;;31.72;27.18;102372.75;5072598;28;20020;-71
2022/08/29 08:42:27;;;;;;;9.30;2.83;;;;;;;31.59;26.97;102375.53;5038409;28;20100;-72
2022/08/29 08:45:10;;;;;;;7.32;2.90;;;;;;;31.12;27.55;102373.53;5017142;28;20561;-72
2022/08/29 08:47:48;;;;;;;8.98;2.95;;;;;;;31.05;28.82;102376.78;5055786;28;20484;-73
2022/08/29 08:50:32;;;;;;;6.28;3.85;;;;;;;30.87;27.75;102382.53;5035049;28;20481;-72
2022/08/29 08:53:06;;;;;;;5.28;2.45;;;;;;;31.51;26.95;102389.56;5033415;28;20438;-72
2022/08/29 08:55:48;;;;;;;6.80;3.00;;;;;;;31.43;27.97;102391.97;5042336;28;20063;-72
2022/08/29 08:58:16;;;;;;;10.85;2.70;;;;;;;30.20;27.88;102394.41;5071284;28;20024;-72
2022/08/29 09:00:54;;;;;;;7.22;2.90;;;;;;;31.05;26.50;102379.47;5071717;28;20036;-72
2022/08/29 09:03:32;;;;;;;6.85;2.67;;;;;;;31.61;27.07;102381.66;5072540;28;20064;-72
2022/08/29 09:06:03;;;;;;;8.15;2.28;;;;;;;30.87;27.57;102385.25;5033971;28;20444;-71
2022/08/29 09:08:40;;;;;;;5.68;2.67;;;;;;;31.35;27.33;102394.41;5044235;28;20561;-73
2022/08/29 09:11:32;;;;;;;8.82;3.30;;;;;;;31.09;28.29;102389.06;5037807;28;20115;-72
2022/08/29 09:14:04;;;;;;;8.48;2.75;;;;;;;32.23;26.38;102393.19;5032976;28;20064;-72
2022/08/29 09:16:40;;;;;;;10.68;3.38;;;;;;;32.38;26.82;102388.41;5036802;28;20033;-72
2022/08/29 09:19:09;;;;;;;9.63;3.05;;;;;;;31.24;27.33;102384.38;5059691;28;20415;-72
2022/08/29 09:21:52;;;;;;;7.07;2.80;;;;;;;31.48;27.34;102384.41;5066927;28;20032;-72
2022/08/29 09:25:07;;;;;;;5.47;2.42;;;;;;;31.34;28.02;102388.16;5070367;28;20101;-72
2022/08/29 09:27:36;;;;;;;7.53;2.85;;;;;;;31.10;26.24;102388.13;5040029;28;20279;-72
2022/08/29 09:30:12;;;;;;;6.00;2.60;;;;;;;30.91;27.64;102388.56;5070237;28;20150;-72
2022/08/29 09:33:01;;;;;;;6.60;2.72;;;;;;;30.90;26.97;102390.41;5065969;28;20115;-72
2022/08/29 09:35:48;;;;;;;6.65;2.70;;;;;;;30.74;26.92;102396.03;5070547;28;20039;-72
2022/08/29 09:38:17;;;;;;;6.93;3.05;;;;;;;31.17;26.49;102392.06;5069039;28;20653;-72
2022/08/29 09:41:00;;;;;;;6.72;2.97;;;;;;;31.53;26.81;102393.03;5033654;28;20033;-72
2022/08/29 09:43:26;;;;;;;5.40;2.15;;;;;;;31.58;26.87;102389.97;5037672;28;20031;-72
2022/08/29 09:46:23;;;;;;;5.82;2.50;;;;;;;32.01;26.37;102388.56;5057932;28;20040;-71
2022/08/29 09:48:58;;;;;;;35.65;5.00;;;;;;;32.91;26.23;102385.97;5039908;28;20377;-72
2022/08/29 09:51:29;;;;;;;8.90;2.88;;;;;;;32.78;25.96;102390.66;5061041;28;20115;-71
2022/08/29 09:54:13;;;;;;;5.85;2.63;;;;;;;31.98;26.06;102381.53;5051346;28;20031;-72
2022/08/29 09:56:47;;;;;;;10.45;3.10;;;;;;;30.50;27.76;102379.78;5032721;28;20029;-72
2022/08/29 09:59:28;;;;;;;7.22;2.65;;;;;;;30.70;27.43;102380.19;5059654;28;20481;-71
2022/08/29 10:02:39;;;;;;;11.35;3.30;;;;;;;32.19;25.70;102376.34;5052263;28;20040;-72
2022/08/29 10:05:08;;;;;;;7.55;2.60;;;;;;;32.60;25.22;102379.44;5050114;28;20120;-72
2022/08/29 10:07:54;;;;;;;6.60;2.58;;;;;;;32.40;25.70;102386.47;5040461;28;20377;-72
2022/08/29 10:10:22;;;;;;;5.72;2.80;;;;;;;32.89;25.91;102387.97;5048651;28;20044;-72
2022/08/29 10:13:07;;;;;;;6.45;2.65;;;;;;;32.14;25.85;102392.91;5068854;28;20058;-72
2022/08/29 10:15:54;;;;;;;9.57;2.72;;;;;;;32.09;26.04;102384.25;5039643;28;20029;-72
2022/08/29 10:18:27;;;;;;;9.38;2.58;;;;;;;32.06;26.34;102394.47;5066367;28;20036;-72
2022/08/29 10:21:05;;;;;;;7.97;2.85;;;;;;;31.56;26.70;102386.50;5044486;28;20110;-72
2022/08/29 10:23:52;;;;;;;4.63;2.25;;;;;;;33.90;24.13;102377.81;5055615;28;20091;-72
2022/08/29 10:26:35;;;;;;;5.35;2.95;;;;;;;31.90;26.08;102384.84;5063740;28;20492;-72
2022/08/29 10:29:07;;;;;;;5.05;2.67;;;;;;;32.35;25.73;102377.84;5056517;28;20107;-72
2022/08/29 10:31:36;;;;;;;6.20;2.67;;;;;;;32.42;25.83;102373.66;5058894;28;20217;-72
2022/08/29 10:34:24;;;;;;;6.43;2.30;;;;;;;31.94;25.21;102380.94;5050207;28;20029;-72
2022/08/29 10:36:59;;;;;;;6.55;2.20;;;;;;;33.99;22.93;102377.03;5066415;28;20116;-72
2022/08/29 10:40:07;;;;;;;5.40;2.42;;;;;;;32.57;22.68;102385.94;5049784;28;20035;-72
2022/08/29 10:42:37;;;;;;;5.93;2.50;;;;;;;32.41;24.53;102377.34;4960180;28;20034;-72
2022/08/29 10:45:05;;;;;;;4.25;2.20;;;;;;;33.22;23.31;102378.06;5046814;28;20049;-72
2022/08/29 10:47:42;;;;;;;4.70;2.20;;;;;;;33.45;23.06;102378.00;5068569;28;20111;-72
2022/08/29 10:50:21;;;;;;;4.40;2.10;;;;;;;32.86;24.59;102361.13;5052041;28;20384;-72
2022/08/29 10:52:46;;;;;;;7.07;2.60;;;;;;;32.37;24.50;102373.16;5049868;28;20130;-72
2022/08/29 10:55:31;;;;;;;6.05;2.88;;;;;;;32.09;25.08;102367.19;5049685;28;20037;-72
2022/08/29 10:58:15;;;;;;;6.10;2.33;;;;;;;30.80;26.83;102365.03;5059270;28;20111;-71
2022/08/29 11:00:47;;;;;;;5.90;2.45;;;;;;;31.90;25.77;102360.53;5032343;28;20037;-72
2022/08/29 11:03:34;;;;;;;5.85;2.42;;;;;;;31.88;25.54;102357.06;5057632;28;20713;-72
2022/08/29 11:06:12;;;;;;;6.35;2.75;;;;;;;32.57;24.73;102360.75;5068843;28;20117;-72
2022/08/29 11:09:12;;;;;;;6.95;2.90;;;;;;;31.10;26.19;102359.25;5065408;28;20085;-71
2022/08/29 11:11:43;;;;;;;5.88;2.75;;;;;;;31.28;26.53;102354.34;5049330;28;20151;-72
2022/08/29 11:14:23;;;;;;;8.77;2.70;;;;;;;32.29;25.35;102353.00;5039644;28;20124;-72
2022/08/29 11:16:51;;;;;;;6.55;2.40;;;;;;;32.86;25.29;102347.56;5069087;28;20086;-72
2022/08/29 11:19:26;;;;;;;6.75;2.90;;;;;;;33.55;24.04;102349.16;5050979;28;20024;-72
2022/08/29 11:22:03;;;;;;;6.45;3.33;;;;;;;32.38;24.57;102350.53;5047701;28;20028;-72
2022/08/29 11:24:32;;;;;;;7.57;3.10;;;;;;;33.35;24.42;102349.97;5057541;28;20016;-71
2022/08/29 11:27:06;;;;;;;8.20;3.20;;;;;;;33.49;22.89;102347.78;5065546;28;20064;-71
2022/08/29 11:29:48;;;;;;;7.50;2.58;;;;;;;33.53;23.10;102348.41;5043937;28;20365;-71
2022/08/29 11:32:46;;;;;;;6.70;2.63;;;;;;;33.45;24.17;102334.63;5068597;28;20036;-71
2022/08/29 11:35:35;;;;;;;9.20;3.28;;;;;;;33.38;23.92;102331.59;5035587;28;20568;-72
2022/08/29 11:38:38;;;;;;;4.97;2.25;;;;;;;34.34;23.01;102322.56;5054367;28;20025;-72